Time;durP1;ratioP1;P1;durP2;ratioP2;P2;SDS_P1;SDS_P2;PMS_P1;PMS_P2;Temp;Humidity;BMP_temperature;BMP_pressure;BME280_temperature;BME280_humidity;BME280_pressure;Samples;Min_cycle;Max_cycle;Signal;HPM_P1;HPM_P2
2022/06/02 00:08:00;;;;;;;11.10;7.60;;;;;;;15.20;63.53;98503.90;433904;1268;112611;-41
2022/06/02 00:18:13;;;;;;;10.40;7.10;;;;;;;15.46;63.28;98529.00;433819;1268;109263;-41
2022/06/02 00:28:22;;;;;;;5.70;4.40;;;;;;;15.58;63.21;98538.41;433918;1268;99938;-43
2022/06/02 00:38:34;;;;;;;12.00;7.30;;;;;;;15.49;63.24;98584.86;434049;1268;108717;-42
2022/06/02 00:48:42;;;;;;;9.10;6.40;;;;;;;15.11;63.86;98593.36;434050;1268;98664;-41
2022/06/02 00:58:57;;;;;;;7.60;6.30;;;;;;;14.83;64.42;98594.32;433771;1268;112637;-45
2022/06/02 01:09:18;;;;;;;10.80;7.90;;;;;;;14.72;65.33;98593.05;434033;1268;109575;-41
2022/06/02 01:19:39;;;;;;;7.50;6.60;;;;;;;14.75;65.80;98604.56;434092;1261;99278;-42
2022/06/02 01:30:20;;;;;;;13.70;7.70;;;;;;;14.51;66.34;98589.98;433253;1269;108754;-42
2022/06/02 01:40:27;;;;;;;12.40;8.00;;;;;;;14.50;67.27;98592.52;433014;1269;99278;-41
2022/06/02 01:50:40;;;;;;;9.80;7.80;;;;;;;14.50;67.72;98603.02;433390;1270;112390;-41
2022/06/02 02:00:55;;;;;;;12.50;8.10;;;;;;;14.44;68.02;98610.40;433073;1270;108900;-41
2022/06/02 02:11:06;;;;;;;9.10;7.20;;;;;;;14.16;68.27;98599.52;433320;1270;99262;-40
2022/06/02 02:21:22;;;;;;;7.80;6.60;;;;;;;14.01;68.88;98594.23;433685;1268;108595;-45
2022/06/02 02:31:36;;;;;;;10.00;6.40;;;;;;;14.06;69.66;98608.70;433768;1268;99270;-42
2022/06/02 02:41:47;;;;;;;8.00;6.90;;;;;;;14.23;70.10;98600.55;433563;1268;112309;-43
2022/06/02 03:02:02;;;;;;;10.80;8.10;;;;;;;13.96;70.53;98601.53;433664;1268;99251;-42
2022/06/02 03:12:08;;;;;;;10.70;8.50;;;;;;;14.05;71.29;98594.27;433702;1268;108805;-41
2022/06/02 03:32:20;;;;;;;12.00;10.20;;;;;;;13.98;71.62;98609.33;433551;1268;112448;-42
2022/06/02 03:42:27;;;;;;;11.60;10.40;;;;;;;14.05;71.87;98617.67;433677;1268;108790;-41
2022/06/02 03:52:58;;;;;;;14.40;12.30;;;;;;;14.11;71.96;98629.32;433732;1267;99273;-42
2022/06/02 04:03:07;;;;;;;13.70;12.30;;;;;;;14.09;71.99;98633.73;433601;1268;108946;-41
2022/06/02 04:23:58;;;;;;;14.30;12.80;;;;;;;14.21;72.33;98644.30;433677;1267;112605;-43
2022/06/02 04:34:14;;;;;;;17.70;14.00;;;;;;;14.24;72.50;98644.97;433745;1268;108784;-43
2022/06/02 04:44:26;;;;;;;15.70;13.40;;;;;;;14.30;72.51;98641.13;433712;1268;99297;-41
2022/06/02 04:54:32;;;;;;;17.70;12.70;;;;;;;14.52;72.46;98649.95;433637;1268;108848;-41
2022/06/02 05:04:41;;;;;;;18.00;12.20;;;;;;;14.90;72.47;98652.63;433669;1268;99263;-42
2022/06/02 05:14:52;;;;;;;16.80;15.10;;;;;;;15.01;72.33;98667.23;433788;1268;111307;-41
2022/06/02 05:25:06;;;;;;;14.50;11.60;;;;;;;16.42;73.13;98680.02;433515;1268;108819;-41
2022/06/02 05:35:32;;;;;;;11.80;10.00;;;;;;;18.87;71.83;98680.61;433504;1267;99273;-40
2022/06/02 05:45:48;;;;;;;8.70;7.90;;;;;;;19.54;69.61;98692.48;433453;1268;108289;-42
2022/06/02 06:06:02;;;;;;;15.70;11.30;;;;;;;17.39;68.88;98759.64;433660;1267;112518;-42
2022/06/02 06:16:07;;;;;;;14.00;10.50;;;;;;;16.77;69.68;98759.48;432977;1269;108694;-41
2022/06/02 06:26:17;;;;;;;10.40;8.10;;;;;;;17.01;70.08;98773.95;433036;1269;99274;-41
2022/06/02 06:36:45;;;;;;;7.50;4.60;;;;;;;18.03;70.13;98795.19;433109;1270;107831;-41
2022/06/02 06:46:50;;;;;;;3.80;3.10;;;;;;;19.31;68.01;98808.92;433075;1269;99318;-40
2022/06/02 06:57:00;;;;;;;3.20;2.90;;;;;;;19.48;64.12;98830.80;432999;1270;112404;-43
2022/06/02 07:17:12;;;;;;;6.20;4.40;;;;;;;17.13;62.80;98882.04;432768;1270;99330;-41
2022/06/02 07:27:23;;;;;;;4.00;3.60;;;;;;;16.64;63.67;98900.41;433001;1270;108178;-41
2022/06/02 07:37:30;;;;;;;3.80;3.00;;;;;;;17.30;62.16;98905.27;433061;1269;99296;-40
2022/06/02 07:47:38;;;;;;;2.40;2.20;;;;;;;16.64;60.82;98925.09;433266;1270;111419;-46
2022/06/02 07:57:44;;;;;;;15.00;4.50;;;;;;;16.53;61.30;98927.39;432947;1269;108737;-41
2022/06/02 08:07:50;;;;;;;5.90;2.10;;;;;;;16.65;60.94;98928.46;433109;1269;98125;-43
2022/06/02 08:18:06;;;;;;;1.50;1.00;;;;;;;17.00;60.73;98925.66;433101;1270;108792;-41
2022/06/02 08:28:19;;;;;;;1.30;1.10;;;;;;;18.19;59.81;98931.52;433062;1269;98897;-41
2022/06/02 08:38:41;;;;;;;1.50;1.00;;;;;;;18.67;57.24;98942.84;433095;1270;112315;-45
2022/06/02 08:49:13;;;;;;;1.70;1.10;;;;;;;19.10;55.62;98947.73;432689;1270;108856;-40
2022/06/02 09:00:06;;;;;;;1.30;1.20;;;;;;;18.85;54.76;98948.41;432717;1270;99337;-40
2022/06/02 09:10:29;;;;;;;1.30;1.20;;;;;;;19.00;54.95;98945.26;432724;1270;112536;-41
2022/06/02 09:20:40;;;;;;;1.60;1.40;;;;;;;19.66;54.66;98939.04;433370;1269;108824;-43
2022/06/02 09:30:57;;;;;;;1.00;1.00;;;;;;;20.17;54.44;98940.91;432850;1270;622684;-42
2022/06/02 09:41:09;;;;;;;2.80;2.00;;;;;;;20.20;52.73;98952.33;433336;1270;108998;-45
2022/06/02 09:51:26;;;;;;;5.10;1.90;;;;;;;20.20;51.97;98948.02;432978;1270;99286;-41
2022/06/02 10:01:41;;;;;;;1.70;1.60;;;;;;;20.14;51.99;98952.17;433174;1269;112415;-41
2022/06/02 10:11:48;;;;;;;1.80;1.60;;;;;;;19.99;51.84;98950.40;433119;1270;108500;-45
2022/06/02 10:21:54;;;;;;;2.80;2.50;;;;;;;20.42;51.88;98954.52;433624;1270;99343;-41
2022/06/02 10:32:28;;;;;;;2.10;1.90;;;;;;;20.30;51.35;98963.77;433540;1269;108832;-41
2022/06/02 10:42:42;;;;;;;1.50;1.50;;;;;;;20.27;52.24;98963.81;433434;1270;99251;-41
2022/06/02 10:53:27;;;;;;;1.50;1.40;;;;;;;20.71;51.71;98964.23;433711;1269;112753;-40
2022/06/02 11:04:16;;;;;;;3.10;0.80;;;;;;;21.05;51.27;98972.58;432933;1270;108881;-42
2022/06/02 11:14:40;;;;;;;1.80;0.80;;;;;;;21.47;50.07;98973.76;433151;1270;99247;-41
2022/06/02 11:25:29;;;;;;;1.20;0.80;;;;;;;22.06;48.45;98983.48;433082;1270;109836;-43
2022/06/02 11:36:05;;;;;;;2.00;0.90;;;;;;;22.00;47.28;98977.11;432535;1270;99261;-43
2022/06/02 11:56:48;;;;;;;1.30;1.00;;;;;;;21.08;47.12;98993.60;433050;1269;109256;-40
2022/06/02 12:38:21;;;;;;;5.90;1.20;;;;;;;20.81;47.09;98999.70;433136;1270;111169;-43
2022/06/02 12:49:04;;;;;;;1.90;0.90;;;;;;;20.93;45.93;98994.94;433101;1268;108189;-41
2022/06/02 12:59:30;;;;;;;4.20;1.50;;;;;;;20.90;45.89;98993.73;433354;1269;99267;-41
2022/06/02 13:10:13;;;;;;;3.10;1.20;;;;;;;20.88;45.08;98995.39;433136;1270;107550;-42
2022/06/02 13:20:38;;;;;;;1.00;1.00;;;;;;;20.77;45.24;99000.70;433530;1268;99294;-41
2022/06/02 13:31:15;;;;;;;1.10;1.10;;;;;;;20.61;44.93;99006.12;433574;1268;112458;-43
2022/06/02 13:41:24;;;;;;;3.50;2.60;;;;;;;20.65;45.14;99007.15;433452;1268;108771;-43
2022/06/02 13:52:03;;;;;;;1.70;0.70;;;;;;;20.77;44.79;99010.44;433595;1268;99281;-43
2022/06/02 14:02:27;;;;;;;2.00;1.10;;;;;;;20.46;44.47;99008.05;433543;1268;108450;-42
2022/06/02 14:12:43;;;;;;;1.90;1.30;;;;;;;20.55;44.50;99008.80;433531;1268;99283;-42
2022/06/02 14:23:02;;;;;;;4.10;1.60;;;;;;;20.55;44.46;99010.54;433506;1268;112279;-42
2022/06/02 14:33:16;;;;;;;0.80;0.80;;;;;;;20.56;44.32;99009.67;433590;1268;108828;-44
2022/06/02 14:43:39;;;;;;;34.20;2.20;;;;;;;20.34;44.50;99005.84;433593;1268;99344;-42
2022/06/02 14:54:03;;;;;;;2.40;0.90;;;;;;;20.41;44.30;99000.58;433538;1268;108699;-43
2022/06/02 15:04:31;;;;;;;10.10;1.60;;;;;;;20.51;44.20;99006.55;433454;1267;99267;-42
2022/06/02 15:14:57;;;;;;;1.40;1.20;;;;;;;20.38;43.93;98999.84;433563;1268;113022;-43
2022/06/02 15:25:03;;;;;;;1.40;1.00;;;;;;;20.36;44.23;98999.92;433594;1267;107804;-42
2022/06/02 15:35:29;;;;;;;1.90;1.10;;;;;;;20.34;44.20;98996.55;433483;1268;99337;-41
2022/06/02 15:46:11;;;;;;;3.30;0.90;;;;;;;20.21;43.81;99001.94;433486;1268;108860;-42
2022/06/02 15:56:56;;;;;;;2.40;1.30;;;;;;;20.09;44.04;99008.88;433636;1268;99248;-42
2022/06/02 16:07:08;;;;;;;2.70;0.90;;;;;;;19.95;44.09;99003.84;433711;1268;112027;-43
2022/06/02 16:17:36;;;;;;;1.80;1.30;;;;;;;19.86;44.08;99003.64;433697;1268;109534;-42
2022/06/02 16:28:21;;;;;;;3.20;0.90;;;;;;;19.76;44.02;99012.90;433647;1268;99326;-46
2022/06/02 16:48:54;;;;;;;2.00;1.00;;;;;;;19.45;44.29;99026.17;433840;1268;99372;-42
2022/06/02 16:59:05;;;;;;;5.30;1.20;;;;;;;19.24;43.96;99026.77;433524;1268;112584;-42
2022/06/02 17:09:45;;;;;;;4.50;1.90;;;;;;;19.01;44.25;99037.88;433495;1268;108757;-43
2022/06/02 17:20:09;;;;;;;1.40;1.30;;;;;;;18.85;44.53;99040.94;433570;1268;99292;-42
2022/06/02 17:30:20;;;;;;;1.40;1.30;;;;;;;18.70;44.62;99044.57;433493;1268;108159;-41
2022/06/02 17:40:45;;;;;;;0.90;0.90;;;;;;;18.50;44.84;99046.04;433602;1268;99309;-44
2022/06/02 17:51:23;;;;;;;3.30;1.70;;;;;;;18.28;45.11;99043.40;433476;1268;112435;-41
2022/06/02 18:01:45;;;;;;;2.20;2.10;;;;;;;18.00;45.70;99050.80;433522;1268;108800;-44
2022/06/02 18:12:00;;;;;;;4.90;1.70;;;;;;;17.81;46.05;99055.93;433550;1268;99420;-44
2022/06/02 18:22:25;;;;;;;7.10;2.60;;;;;;;17.63;46.62;99066.73;433733;1268;108849;-42
2022/06/02 18:43:00;;;;;;;3.40;2.30;;;;;;;16.85;48.70;99096.41;433526;1269;112714;-41
2022/06/02 19:03:56;;;;;;;10.50;3.50;;;;;;;15.98;50.85;99130.70;433438;1268;99135;-41
2022/06/02 19:14:33;;;;;;;7.70;3.70;;;;;;;15.47;51.51;99140.16;433607;1268;108558;-43
2022/06/02 19:25:11;;;;;;;10.10;5.00;;;;;;;14.89;52.02;99151.74;433623;1268;98384;-42
2022/06/02 19:35:16;;;;;;;7.70;4.40;;;;;;;14.43;53.07;99165.14;433471;1268;113349;-43
2022/06/02 19:45:26;;;;;;;9.60;4.60;;;;;;;14.26;54.18;99173.22;433017;1269;108902;-43
2022/06/02 19:55:48;;;;;;;10.10;5.70;;;;;;;14.19;54.76;99181.85;433685;1268;99286;-42
2022/06/02 20:05:57;;;;;;;15.90;9.10;;;;;;;13.92;55.29;99184.61;433526;1268;109091;-43
2022/06/02 20:16:08;;;;;;;18.30;9.80;;;;;;;13.54;55.91;99192.27;433540;1268;99251;-44
2022/06/02 20:26:20;;;;;;;17.50;9.50;;;;;;;13.24;56.79;99198.92;433508;1268;112833;-42
2022/06/02 20:36:31;;;;;;;20.90;8.50;;;;;;;13.04;57.46;99199.52;433756;1268;108908;-42
2022/06/02 20:46:57;;;;;;;18.80;9.20;;;;;;;12.87;58.12;99200.63;433041;1269;99337;-41
2022/06/02 20:57:08;;;;;;;16.10;9.90;;;;;;;12.83;58.81;99209.61;433437;1268;108453;-43
2022/06/02 21:07:23;;;;;;;21.40;10.20;;;;;;;12.65;59.04;99217.52;433041;1269;98250;-41
2022/06/02 21:17:34;;;;;;;24.00;12.80;;;;;;;12.09;59.46;99227.16;433529;1268;112867;-41
2022/06/02 21:27:41;;;;;;;17.80;11.10;;;;;;;11.97;60.54;99230.45;433303;1268;678544;-42
2022/06/02 21:37:47;;;;;;;21.30;11.80;;;;;;;11.69;60.49;99232.83;433448;1266;99241;-44
2022/06/02 21:47:56;;;;;;;14.90;9.60;;;;;;;11.60;61.18;99231.77;433475;1268;107801;-42
2022/06/02 21:58:08;;;;;;;13.80;9.20;;;;;;;11.76;61.82;99225.35;433149;1269;99263;-44
2022/06/02 22:08:15;;;;;;;16.30;9.90;;;;;;;11.67;61.69;99226.31;433727;1268;112421;-42
2022/06/02 22:18:21;;;;;;;16.70;9.40;;;;;;;11.35;62.33;99227.73;433732;1268;108467;-42
2022/06/02 22:28:27;;;;;;;16.90;9.10;;;;;;;11.27;62.91;99227.89;433544;1268;99311;-43
2022/06/02 22:38:53;;;;;;;11.20;8.60;;;;;;;10.92;62.69;99228.83;433741;1268;108838;-42
2022/06/02 22:49:21;;;;;;;8.50;6.20;;;;;;;10.83;63.71;99224.73;433057;1270;98847;-40
2022/06/02 22:59:42;;;;;;;9.30;5.80;;;;;;;10.86;63.63;99225.83;433421;1268;112463;-42
2022/06/02 23:09:47;;;;;;;17.30;11.00;;;;;;;10.85;64.13;99226.70;433515;1268;108735;-45
2022/06/02 23:19:58;;;;;;;23.80;14.00;;;;;;;10.70;64.25;99238.08;433673;1268;99240;-44
2022/06/02 23:30:03;;;;;;;24.80;15.50;;;;;;;10.58;64.75;99250.45;432658;1270;106434;-41
2022/06/02 23:40:14;;;;;;;30.80;17.30;;;;;;;10.53;65.19;99258.14;433552;1268;99305;-42
2022/06/02 23:50:27;;;;;;;34.70;19.90;;;;;;;10.53;65.65;99264.58;433639;1268;112292;-42
